Time;durP1;ratioP1;P1;durP2;ratioP2;P2;SDS_P1;SDS_P2;PMS_P1;PMS_P2;Temp;Humidity;BMP_temperature;BMP_pressure;BME280_temperature;BME280_humidity;BME280_pressure;Samples;Min_cycle;Max_cycle;Signal;HPM_P1;HPM_P2
2022/06/23 00:01:59;;;;;;;4.40;2.50;;;25.80;40.40;27.10;100331.00;;;;5087602;28;20175;-42
2022/06/23 00:04:46;;;;;;;3.40;2.35;;;25.80;40.50;27.10;100344.00;;;;5087648;28;20684;-46
2022/06/23 00:07:26;;;;;;;2.60;2.40;;;25.80;40.60;27.00;100332.00;;;;5088565;28;20197;-44
2022/06/23 00:09:55;;;;;;;3.15;2.50;;;25.80;40.70;27.00;100339.00;;;;5071943;28;20318;-42
2022/06/23 00:12:30;;;;;;;2.28;2.15;;;25.70;40.70;27.00;100335.00;;;;5088496;28;20169;-40
2022/06/23 00:14:58;;;;;;;2.95;2.45;;;25.70;40.90;26.90;100336.00;;;;5090183;28;20329;-44
2022/06/23 00:17:44;;;;;;;3.25;2.50;;;25.70;41.00;26.90;100342.00;;;;5089959;28;20172;-43
2022/06/23 00:20:30;;;;;;;3.03;2.40;;;25.70;41.20;26.80;100341.00;;;;5088684;28;20614;-43
2022/06/23 00:23:20;;;;;;;3.88;2.50;;;25.70;41.00;26.90;100339.00;;;;5072366;28;20191;-43
2022/06/23 00:26:07;;;;;;;2.55;2.30;;;25.60;41.20;26.80;100342.00;;;;5087789;28;20208;-42
2022/06/23 00:28:52;;;;;;;5.05;2.38;;;25.50;41.20;26.80;100331.00;;;;5087186;28;20679;-42
2022/06/23 00:31:34;;;;;;;2.42;2.22;;;25.60;41.50;26.90;100346.00;;;;5087832;28;20165;-42
2022/06/23 00:34:03;;;;;;;2.60;2.35;;;25.60;41.70;26.90;100341.00;;;;5071884;28;20276;-43
2022/06/23 00:36:30;;;;;;;2.85;2.28;;;25.60;41.70;26.90;100339.00;;;;5071079;28;20233;-43
2022/06/23 00:38:56;;;;;;;2.45;2.25;;;25.60;41.80;26.90;100326.00;;;;5088202;28;20173;-43
2022/06/23 00:41:26;;;;;;;2.63;2.30;;;25.50;41.70;26.90;100332.00;;;;5087367;28;20157;-42
2022/06/23 00:43:52;;;;;;;2.80;2.60;;;25.50;41.90;26.80;100331.00;;;;5087084;28;20185;-42
2022/06/23 00:46:27;;;;;;;3.65;2.40;;;25.50;41.70;26.80;100337.00;;;;5087033;28;20173;-43
2022/06/23 00:49:00;;;;;;;2.50;2.30;;;25.50;41.90;26.70;100339.00;;;;5070358;28;20157;-42
2022/06/23 00:51:40;;;;;;;2.85;2.20;;;25.50;41.90;26.70;100330.00;;;;5086999;28;20683;-43
2022/06/23 00:54:18;;;;;;;3.13;2.30;;;25.50;42.10;26.70;100331.00;;;;5071708;28;20215;-43
2022/06/23 00:57:05;;;;;;;3.10;2.42;;;25.50;42.10;26.70;100334.00;;;;5071259;28;20222;-44
2022/06/23 00:59:40;;;;;;;2.63;2.42;;;25.40;42.00;26.60;100317.00;;;;5087064;28;20177;-42
2022/06/23 01:02:13;;;;;;;2.70;2.50;;;25.40;42.20;26.60;100318.00;;;;5086858;28;20153;-42
2022/06/23 01:04:48;;;;;;;2.70;2.50;;;25.40;42.20;26.60;100315.00;;;;5086686;28;20289;-42
2022/06/23 01:07:40;;;;;;;2.40;2.20;;;25.40;42.30;26.60;100317.00;;;;5087653;28;20663;-42
2022/06/23 01:10:43;;;;;;;4.15;2.65;;;25.30;42.10;26.60;100314.00;;;;5086477;28;20169;-42
2022/06/23 01:13:31;;;;;;;3.15;2.40;;;25.30;42.30;26.50;100311.00;;;;5086690;28;20168;-42
2022/06/23 01:16:12;;;;;;;3.10;2.30;;;25.30;42.10;26.50;100316.00;;;;5070753;28;20713;-42
2022/06/23 01:18:41;;;;;;;2.70;2.50;;;25.40;42.00;26.40;100323.00;;;;5086862;28;20282;-43
2022/06/23 01:21:21;;;;;;;2.60;2.40;;;25.30;41.80;26.40;100312.00;;;;5069260;28;20763;-42
2022/06/23 01:24:11;;;;;;;3.30;2.40;;;25.20;42.10;26.40;100318.00;;;;5069300;28;20259;-41
2022/06/23 01:27:19;;;;;;;4.40;2.42;;;25.30;41.80;26.30;100319.00;;;;5085761;28;20161;-43
2022/06/23 01:29:50;;;;;;;2.53;2.33;;;25.30;41.80;26.30;100326.00;;;;5085892;28;20184;-42
2022/06/23 01:32:36;;;;;;;2.70;2.50;;;25.30;42.00;26.20;100319.00;;;;5069589;28;20165;-43
2022/06/23 01:35:20;;;;;;;3.88;2.42;;;25.20;41.90;26.20;100311.00;;;;5070659;28;20208;-42
2022/06/23 01:38:00;;;;;;;2.55;2.35;;;25.20;42.10;26.20;100309.00;;;;5070581;28;20153;-42
2022/06/23 01:41:10;;;;;;;3.20;2.40;;;25.20;42.00;26.20;100322.00;;;;5072042;28;20153;-43
2022/06/23 01:43:43;;;;;;;2.53;2.33;;;25.10;42.00;26.20;100336.00;;;;5099342;28;20274;-42
2022/06/23 01:46:37;;;;;;;2.85;2.30;;;25.10;42.10;26.20;100332.00;;;;5110252;28;20169;-42
2022/06/23 01:49:32;;;;;;;2.78;2.50;;;25.10;42.00;26.20;100339.00;;;;5092269;28;20173;-43
2022/06/23 01:52:19;;;;;;;3.30;2.75;;;25.10;42.10;26.10;100337.00;;;;5084390;28;20653;-43
2022/06/23 01:54:57;;;;;;;2.70;2.50;;;25.10;42.10;26.10;100341.00;;;;5068644;28;20818;-43
2022/06/23 01:57:36;;;;;;;2.50;2.30;;;25.10;42.00;26.10;100323.00;;;;5069775;28;20596;-42
2022/06/23 02:00:21;;;;;;;2.80;2.30;;;25.00;42.10;26.00;100334.00;;;;5086767;28;20169;-41
2022/06/23 02:02:52;;;;;;;2.50;2.30;;;25.00;42.20;26.10;100330.00;;;;5085545;28;20196;-42
2022/06/23 02:05:40;;;;;;;3.75;2.20;;;25.00;42.30;26.10;100320.00;;;;5086734;28;20195;-43
2022/06/23 02:08:37;;;;;;;3.45;2.60;;;24.90;43.00;26.10;100333.00;;;;5070297;28;20218;-43
2022/06/23 02:11:48;;;;;;;2.75;2.28;;;24.90;42.30;26.00;100334.00;;;;5085132;28;20257;-42
2022/06/23 02:14:19;;;;;;;2.60;2.40;;;24.90;42.50;26.00;100338.00;;;;5072530;28;20265;-43
2022/06/23 02:17:09;;;;;;;3.58;2.50;;;24.90;42.40;26.00;100331.00;;;;5084807;28;20240;-42
2022/06/23 02:20:23;;;;;;;2.70;2.40;;;24.90;42.60;26.00;100343.00;;;;5084549;28;20152;-43
2022/06/23 02:22:49;;;;;;;2.43;2.20;;;24.90;42.60;25.90;100335.00;;;;5084680;28;20196;-41
2022/06/23 02:25:29;;;;;;;2.55;2.35;;;24.90;42.80;25.90;100345.00;;;;5085022;28;20184;-42
2022/06/23 02:28:16;;;;;;;3.25;2.30;;;24.80;42.70;25.90;100346.00;;;;5084794;28;20164;-44
2022/06/23 02:31:00;;;;;;;3.30;2.47;;;24.80;42.70;25.90;100352.00;;;;5069147;28;20299;-42
2022/06/23 02:33:35;;;;;;;3.05;2.70;;;24.80;43.00;25.90;100351.00;;;;5086026;28;20212;-42
2022/06/23 02:36:53;;;;;;;2.95;2.47;;;24.70;42.90;25.90;100346.00;;;;5086316;28;20240;-42
2022/06/23 02:39:37;;;;;;;3.08;2.40;;;24.70;43.10;25.90;100344.00;;;;5084721;28;20670;-41
2022/06/23 02:42:15;;;;;;;3.75;2.63;;;24.70;43.30;25.90;100341.00;;;;5084829;28;20192;-42
2022/06/23 02:45:15;;;;;;;3.35;2.53;;;24.70;43.20;25.80;100341.00;;;;5084361;28;20200;-42
2022/06/23 02:48:09;;;;;;;2.83;2.50;;;24.70;43.30;25.80;100353.00;;;;5084558;28;20740;-43
2022/06/23 02:50:53;;;;;;;4.70;2.70;;;24.70;43.30;25.80;100342.00;;;;5087414;28;20715;-43
2022/06/23 02:53:58;;;;;;;2.63;2.42;;;24.70;43.40;25.80;100347.00;;;;5086230;28;20211;-42
2022/06/23 02:57:21;;;;;;;2.50;2.30;;;24.70;43.30;25.80;100345.00;;;;5085581;28;20161;-42
2022/06/23 03:00:04;;;;;;;5.72;2.50;;;24.70;43.40;25.80;100350.00;;;;5084114;28;20165;-43
2022/06/23 03:03:05;;;;;;;4.43;2.40;;;24.70;43.50;25.80;100353.00;;;;5084797;28;20187;-42
2022/06/23 03:05:58;;;;;;;2.90;2.23;;;24.60;43.40;25.70;100355.00;;;;5084801;28;20200;-43
2022/06/23 03:08:31;;;;;;;3.43;2.67;;;24.60;43.20;25.60;100345.00;;;;5083981;28;20173;-42
2022/06/23 03:11:14;;;;;;;3.37;2.40;;;24.60;43.40;25.60;100355.00;;;;5084463;28;20166;-42
2022/06/23 03:13:54;;;;;;;3.90;2.67;;;24.60;43.50;25.60;100335.00;;;;5071451;28;20213;-42
2022/06/23 03:16:33;;;;;;;2.93;2.50;;;24.60;43.30;25.50;100343.00;;;;5071818;28;20245;-42
2022/06/23 03:19:22;;;;;;;3.10;2.40;;;24.50;43.30;25.50;100345.00;;;;5070286;28;20169;-41
2022/06/23 03:22:24;;;;;;;3.13;2.50;;;24.50;43.90;25.50;100352.00;;;;5086644;28;20192;-42
2022/06/23 03:25:16;;;;;;;3.00;2.60;;;24.60;43.60;25.50;100360.00;;;;5057589;28;20860;-43
2022/06/23 03:27:52;;;;;;;3.83;2.40;;;24.50;43.80;25.50;100358.00;;;;5082455;28;20193;-42
2022/06/23 03:31:03;;;;;;;5.40;2.43;;;24.40;43.70;25.50;100357.00;;;;5071842;28;20184;-43
2022/06/23 03:33:44;;;;;;;4.67;2.40;;;24.50;44.00;25.40;100356.00;;;;5087669;28;20642;-42
2022/06/23 03:36:15;;;;;;;5.20;2.70;;;24.50;43.80;25.40;100367.00;;;;5088599;28;20161;-42
2022/06/23 03:41:38;;;;;;;2.40;2.20;;;24.40;43.90;25.40;100344.00;;;;5073280;28;20204;-42
2022/06/23 03:44:15;;;;;;;2.78;2.50;;;24.40;43.90;25.40;100342.00;;;;5055518;28;20204;-44
2022/06/23 03:46:48;;;;;;;2.60;2.40;;;24.40;44.00;25.30;100346.00;;;;5087464;28;20149;-42
2022/06/23 03:49:44;;;;;;;2.60;2.40;;;24.30;43.90;25.30;100352.00;;;;5070924;28;20840;-42
2022/06/23 03:52:40;;;;;;;3.35;2.40;;;24.30;44.00;25.30;100345.00;;;;5084465;28;20664;-42
2022/06/23 03:55:18;;;;;;;3.67;2.37;;;24.30;44.10;25.30;100350.00;;;;5087576;28;20216;-42
2022/06/23 03:58:00;;;;;;;2.90;2.37;;;24.30;44.20;25.20;100348.00;;;;5087912;28;20157;-42
2022/06/23 04:00:36;;;;;;;2.70;2.50;;;24.30;44.20;25.20;100357.00;;;;5057086;28;20531;-43
2022/06/23 04:03:34;;;;;;;4.53;2.50;;;24.20;44.30;25.20;100365.00;;;;5087515;28;20165;-42
2022/06/23 04:06:39;;;;;;;4.10;2.60;;;24.20;44.40;25.30;100391.00;;;;5087669;28;20165;-44
2022/06/23 04:09:20;;;;;;;3.93;2.70;;;24.20;44.50;25.30;100375.00;;;;5087499;28;20161;-42
2022/06/23 04:11:54;;;;;;;3.03;2.37;;;24.30;44.70;25.30;100378.00;;;;5070523;28;20171;-42
2022/06/23 04:14:29;;;;;;;5.03;2.60;;;24.40;44.80;25.40;100381.00;;;;5088095;28;20845;-42
2022/06/23 04:17:29;;;;;;;2.90;2.30;;;24.40;44.90;25.40;100381.00;;;;5088228;28;20183;-42
2022/06/23 04:20:00;;;;;;;12.77;2.90;;;24.40;44.90;25.40;100376.00;;;;5087013;28;20534;-42
2022/06/23 04:22:46;;;;;;;22.57;4.13;;;24.40;45.00;25.50;100380.00;;;;5070320;28;20165;-42
2022/06/23 04:25:19;;;;;;;10.65;3.20;;;24.40;45.30;25.40;100371.00;;;;5070197;28;20185;-42
2022/06/23 04:27:52;;;;;;;9.07;2.90;;;24.40;45.70;25.40;100375.00;;;;5086553;28;20627;-42
2022/06/23 04:30:27;;;;;;;7.70;3.00;;;24.40;45.70;25.50;100369.00;;;;5086964;28;20169;-43
2022/06/23 04:32:54;;;;;;;5.67;2.87;;;24.40;45.60;25.50;100377.00;;;;5094714;28;20689;-42
2022/06/23 04:35:27;;;;;;;6.07;2.43;;;24.40;45.50;25.50;100375.00;;;;5059107;28;20205;-43
2022/06/23 04:38:11;;;;;;;3.03;2.63;;;24.50;45.50;25.50;100374.00;;;;5071824;28;20161;-43
2022/06/23 04:40:45;;;;;;;3.00;2.60;;;24.50;45.60;25.50;100369.00;;;;5087470;28;20165;-43
2022/06/23 04:43:37;;;;;;;4.13;2.60;;;24.50;45.60;25.50;100369.00;;;;5088627;28;20172;-42
2022/06/23 04:46:18;;;;;;;4.35;2.63;;;24.50;45.70;25.50;100377.00;;;;5069770;28;20184;-43
2022/06/23 04:49:05;;;;;;;4.85;2.70;;;24.50;46.30;25.50;100381.00;;;;5052967;28;20284;-43
2022/06/23 04:51:44;;;;;;;2.67;2.47;;;24.50;45.50;25.50;100384.00;;;;5072064;28;20203;-43
2022/06/23 04:54:10;;;;;;;2.93;2.63;;;24.50;45.60;25.50;100392.00;;;;5068964;28;20560;-42
2022/06/23 04:56:48;;;;;;;3.25;2.55;;;24.50;45.50;25.50;100386.00;;;;5087491;28;20175;-43
2022/06/23 04:59:36;;;;;;;5.53;2.50;;;24.60;45.70;25.50;100388.00;;;;5070700;28;20157;-42
2022/06/23 05:02:25;;;;;;;4.10;2.80;;;24.50;45.90;25.50;100392.00;;;;5093674;28;20184;-43
2022/06/23 05:05:24;;;;;;;2.60;2.40;;;24.60;46.00;25.50;100380.00;;;;5091806;28;20448;-43
2022/06/23 05:08:02;;;;;;;3.80;2.40;;;24.60;46.10;25.50;100388.00;;;;5112253;28;20237;-42
2022/06/23 05:10:43;;;;;;;4.00;2.40;;;24.50;46.00;25.50;100395.00;;;;5106945;28;20148;-42
2022/06/23 05:13:15;;;;;;;2.50;2.30;;;24.50;46.20;25.50;100387.00;;;;5085595;28;20236;-43
2022/06/23 05:15:58;;;;;;;3.23;2.50;;;24.60;46.30;25.50;100389.00;;;;5036557;28;20223;-42
2022/06/23 05:18:30;;;;;;;2.60;2.40;;;24.60;46.40;25.50;100397.00;;;;5084958;28;20266;-44
2022/06/23 05:21:09;;;;;;;3.33;2.50;;;24.50;46.50;25.50;100394.00;;;;5085696;28;20164;-42
2022/06/23 05:24:01;;;;;;;3.50;2.40;;;24.50;46.50;25.50;100396.00;;;;5085461;28;20204;-43
2022/06/23 05:26:38;;;;;;;3.57;2.40;;;24.60;46.60;25.50;100388.00;;;;5085746;28;20196;-44
2022/06/23 05:29:18;;;;;;;2.80;2.50;;;24.60;46.60;25.50;100395.00;;;;5069005;28;20184;-42
2022/06/23 05:31:47;;;;;;;2.73;2.40;;;24.60;46.60;25.50;100384.00;;;;5069744;28;20153;-41
2022/06/23 05:34:23;;;;;;;2.50;2.30;;;24.60;46.70;25.50;100401.00;;;;5052628;28;20223;-42
2022/06/23 05:37:04;;;;;;;3.07;2.77;;;24.60;46.90;25.50;100397.00;;;;5085148;28;20176;-42
2022/06/23 05:39:48;;;;;;;3.70;2.50;;;24.60;46.90;25.50;100402.00;;;;5086738;28;20618;-42
2022/06/23 05:42:25;;;;;;;3.00;2.30;;;24.60;46.90;25.50;100384.00;;;;5070261;28;20165;-41
2022/06/23 05:45:05;;;;;;;4.17;2.53;;;24.60;47.10;25.50;100398.00;;;;5068617;28;20196;-42
2022/06/23 05:47:32;;;;;;;3.15;2.53;;;24.60;47.00;25.50;100399.00;;;;5051999;28;20183;-42
2022/06/23 05:50:05;;;;;;;2.67;2.47;;;24.60;47.00;25.50;100386.00;;;;5086495;28;20217;-42
2022/06/23 05:52:42;;;;;;;3.10;2.50;;;24.60;46.90;25.50;100402.00;;;;5069543;28;20161;-42
2022/06/23 05:55:50;;;;;;;3.03;2.70;;;24.70;47.10;25.50;100408.00;;;;5068384;28;20208;-42
2022/06/23 05:58:44;;;;;;;2.73;2.30;;;24.70;47.90;25.40;100396.00;;;;5051536;28;20180;-43
2022/06/23 06:01:18;;;;;;;3.20;2.53;;;24.60;47.10;25.40;100399.00;;;;5084867;28;20649;-42
2022/06/23 06:04:21;;;;;;;3.10;2.60;;;24.70;47.30;25.40;100399.00;;;;5085878;28;20192;-43
2022/06/23 06:06:47;;;;;;;2.70;2.50;;;24.70;47.70;25.40;100400.00;;;;5083607;28;20626;-41
2022/06/23 06:12:01;;;;;;;2.92;2.47;;;24.70;47.60;25.40;100409.00;;;;5084956;28;20179;-43
2022/06/23 06:14:32;;;;;;;3.40;2.70;;;24.70;47.50;25.40;100412.00;;;;5085021;28;20704;-42
2022/06/23 06:16:58;;;;;;;3.05;2.50;;;24.70;47.40;25.40;100405.00;;;;5084877;28;20173;-44
2022/06/23 06:19:25;;;;;;;2.87;2.50;;;24.70;47.60;25.40;100403.00;;;;5084915;28;20900;-41
2022/06/23 06:21:57;;;;;;;3.63;2.90;;;24.60;47.80;25.40;100407.00;;;;5068229;28;20169;-42
2022/06/23 06:24:37;;;;;;;3.27;2.70;;;24.60;48.10;25.40;100410.00;;;;5051443;28;20231;-41
2022/06/23 06:27:03;;;;;;;3.08;2.78;;;24.70;48.20;25.40;100403.00;;;;5068155;28;20176;-42
2022/06/23 06:29:33;;;;;;;3.13;2.83;;;24.70;49.00;25.40;100407.00;;;;5084267;28;20180;-42
2022/06/23 06:32:11;;;;;;;3.00;2.70;;;24.60;48.90;25.40;100400.00;;;;5068079;28;20165;-42
2022/06/23 06:34:41;;;;;;;5.13;3.00;;;24.70;48.90;25.40;100400.00;;;;5085878;28;20208;-43
2022/06/23 06:37:08;;;;;;;3.50;2.90;;;24.70;49.10;25.40;100398.00;;;;5066414;28;20436;-42
2022/06/23 06:39:50;;;;;;;8.23;3.20;;;24.60;49.10;25.50;100408.00;;;;5066985;28;20695;-42
2022/06/23 06:42:32;;;;;;;5.07;3.00;;;24.70;49.70;25.50;100399.00;;;;5055112;28;20246;-42
2022/06/23 06:44:59;;;;;;;5.53;3.13;;;24.70;50.60;25.40;100396.00;;;;5080171;28;20295;-43
2022/06/23 06:47:28;;;;;;;3.95;2.83;;;24.70;49.90;25.50;100398.00;;;;5085125;28;20173;-43
2022/06/23 06:49:59;;;;;;;4.27;3.20;;;24.70;50.20;25.50;100404.00;;;;5089434;28;20540;-43
2022/06/23 06:52:25;;;;;;;3.47;2.83;;;24.70;50.30;25.50;100399.00;;;;5087126;28;20177;-42
2022/06/23 06:55:03;;;;;;;5.30;3.10;;;24.70;50.50;25.50;100399.00;;;;5088007;28;20211;-43
2022/06/23 06:57:39;;;;;;;4.33;3.20;;;24.70;50.10;25.50;100401.00;;;;5087318;28;20165;-42
2022/06/23 07:00:11;;;;;;;4.83;3.27;;;24.70;50.20;25.50;100406.00;;;;5087633;28;20176;-42
2022/06/23 07:02:46;;;;;;;4.33;3.13;;;24.70;50.80;25.50;100406.00;;;;5089330;28;20165;-41
2022/06/23 07:05:27;;;;;;;5.20;3.07;;;24.70;50.80;25.50;100408.00;;;;5087505;28;20411;-42
2022/06/23 07:08:15;;;;;;;5.55;3.50;;;24.70;50.80;25.50;100404.00;;;;5085557;28;20187;-42
2022/06/23 07:11:09;;;;;;;4.80;3.23;;;24.70;50.70;25.50;100404.00;;;;5012454;27;20226;-42
2022/06/23 07:14:02;;;;;;;3.73;3.40;;;24.70;50.80;25.50;100403.00;;;;5110854;27;20196;-42
2022/06/23 07:16:35;;;;;;;5.03;3.47;;;24.70;51.70;25.50;100403.00;;;;5068821;28;20177;-41
2022/06/23 07:19:11;;;;;;;6.43;3.47;;;24.70;51.60;25.50;100395.00;;;;5068513;28;20162;-42
2022/06/23 07:21:41;;;;;;;4.38;3.38;;;24.70;51.70;25.50;100399.00;;;;5068362;28;20192;-42
2022/06/23 07:24:18;;;;;;;3.70;3.20;;;24.70;51.60;25.60;100402.00;;;;5067536;28;20317;-43
2022/06/23 07:27:05;;;;;;;4.37;3.80;;;24.70;52.00;25.60;100402.00;;;;5074528;28;20176;-48
2022/06/23 07:29:38;;;;;;;3.97;3.20;;;24.80;52.90;25.60;100398.00;;;;5104105;28;20889;-48
2022/06/23 07:32:35;;;;;;;5.72;3.72;;;24.80;52.50;25.60;100402.00;;;;5104549;28;20216;-46
2022/06/23 07:35:36;;;;;;;4.00;3.43;;;24.90;52.30;25.70;100393.00;;;;5088394;28;20208;-47
2022/06/23 07:38:07;;;;;;;5.70;3.22;;;24.90;52.80;25.70;100400.00;;;;5100957;28;20161;-45
2022/06/23 07:41:01;;;;;;;9.18;3.92;;;24.90;52.50;25.70;100395.00;;;;5104618;28;20524;-45
2022/06/23 07:44:08;;;;;;;10.00;3.90;;;25.00;52.60;25.80;100388.00;;;;5104840;28;20433;-47
2022/06/23 07:46:35;;;;;;;9.53;3.90;;;25.00;53.10;25.80;100396.00;;;;5106339;28;20222;-47
2022/06/23 07:49:01;;;;;;;8.17;4.03;;;25.00;53.50;25.80;100390.00;;;;5108545;28;20308;-45
2022/06/23 07:51:27;;;;;;;7.87;3.83;;;25.00;53.90;25.80;100385.00;;;;5104509;28;20630;-46
2022/06/23 07:53:54;;;;;;;9.63;3.87;;;25.10;53.80;25.90;100382.00;;;;5088754;28;20290;-46
2022/06/23 07:56:23;;;;;;;4.43;3.85;;;25.10;53.90;25.90;100389.00;;;;5103653;28;20189;-47
2022/06/23 07:58:55;;;;;;;6.55;3.83;;;25.10;53.60;25.90;100376.00;;;;5086544;28;20173;-46
2022/06/23 08:01:58;;;;;;;4.88;3.80;;;25.10;53.90;25.90;100390.00;;;;5101200;28;20306;-46
2022/06/23 08:04:56;;;;;;;6.47;3.88;;;25.10;54.00;25.90;100397.00;;;;5089603;28;20193;-47
2022/06/23 08:07:22;;;;;;;5.80;3.45;;;25.20;54.40;25.90;100389.00;;;;5103226;28;20595;-46
2022/06/23 08:09:54;;;;;;;5.05;3.65;;;25.20;54.40;26.00;100389.00;;;;5035465;27;20176;-47
2022/06/23 08:12:58;;;;;;;6.67;3.60;;;25.20;54.10;26.00;100389.00;;;;5123620;27;20174;-47
2022/06/23 08:18:26;;;;;;;5.03;3.70;;;25.20;54.80;26.00;100341.00;;;;5107625;28;20309;-46
2022/06/23 08:21:04;;;;;;;6.63;3.33;;;25.20;54.40;26.00;100391.00;;;;5105204;27;20322;-46
2022/06/23 08:23:38;;;;;;;4.55;3.70;;;25.20;54.40;26.00;100393.00;;;;5102152;28;20399;-46
2022/06/23 08:26:06;;;;;;;6.97;3.88;;;25.30;54.80;26.10;100385.00;;;;5103219;28;20165;-47
2022/06/23 08:28:32;;;;;;;5.50;3.80;;;25.30;54.50;26.10;100386.00;;;;5103170;28;20180;-46
2022/06/23 08:30:58;;;;;;;4.50;3.75;;;25.30;54.20;26.10;100395.00;;;;5104044;28;20181;-46
2022/06/23 08:33:25;;;;;;;6.47;4.07;;;25.30;54.20;26.20;100374.00;;;;5102472;28;20173;-45
2022/06/23 08:35:50;;;;;;;4.35;3.60;;;25.30;54.40;26.20;100384.00;;;;5102401;28;20229;-47
2022/06/23 08:38:26;;;;;;;5.18;4.00;;;25.40;54.50;26.20;100369.00;;;;5087720;28;20193;-46
2022/06/23 08:41:20;;;;;;;5.50;3.92;;;25.40;54.30;26.20;100382.00;;;;5102362;28;20165;-46
2022/06/23 08:44:13;;;;;;;5.35;3.85;;;25.40;53.90;26.20;100375.00;;;;5087664;28;20185;-46
2022/06/23 08:47:13;;;;;;;5.78;4.30;;;25.40;54.50;26.20;100375.00;;;;5111305;28;20173;-47
2022/06/23 08:49:53;;;;;;;4.93;3.90;;;25.50;54.60;26.30;100389.00;;;;5087606;28;20283;-47
2022/06/23 08:52:38;;;;;;;4.88;4.30;;;25.50;54.20;26.30;100375.00;;;;5103385;28;20188;-47
2022/06/23 08:55:09;;;;;;;4.22;3.72;;;25.60;54.20;26.30;100386.00;;;;5086242;28;20209;-47
2022/06/23 08:57:48;;;;;;;4.50;4.10;;;25.60;54.10;26.30;100389.00;;;;5102654;28;20239;-46
2022/06/23 09:00:29;;;;;;;4.28;3.88;;;25.60;54.00;26.40;100385.00;;;;5102711;28;20192;-46
2022/06/23 09:03:02;;;;;;;4.60;4.18;;;25.60;54.10;26.40;100386.00;;;;5102776;28;20215;-46
2022/06/23 09:05:54;;;;;;;6.07;3.97;;;25.50;54.00;26.40;100377.00;;;;5103541;28;20185;-46
2022/06/23 09:08:52;;;;;;;4.65;4.25;;;25.50;54.40;26.40;100379.00;;;;5104315;28;20504;-47
2022/06/23 09:11:19;;;;;;;4.60;3.90;;;25.70;54.70;26.40;100381.00;;;;5088483;28;20223;-46
2022/06/23 09:14:09;;;;;;;4.65;4.13;;;25.70;54.40;26.50;100363.00;;;;5102372;28;20199;-45
2022/06/23 09:16:54;;;;;;;4.90;3.80;;;25.60;54.20;26.50;100373.00;;;;5087048;28;20173;-47
2022/06/23 09:19:53;;;;;;;6.93;4.00;;;25.60;54.70;26.50;100373.00;;;;5101853;28;20189;-47
2022/06/23 09:22:45;;;;;;;4.30;3.90;;;25.60;54.70;26.50;100364.00;;;;5099851;28;20176;-47
2022/06/23 09:25:19;;;;;;;4.50;4.10;;;25.70;54.70;26.50;100363.00;;;;5102238;28;20665;-45
2022/06/23 09:28:25;;;;;;;4.30;3.83;;;25.70;55.00;26.50;100360.00;;;;5087134;28;20428;-45
2022/06/23 09:31:26;;;;;;;4.65;3.90;;;25.70;55.50;26.60;100354.00;;;;5100837;28;20550;-46
2022/06/23 09:34:12;;;;;;;4.35;3.92;;;25.80;55.70;26.60;100366.00;;;;5073824;28;20207;-46
2022/06/23 09:37:04;;;;;;;4.28;3.75;;;25.80;55.20;26.60;100353.00;;;;5102767;28;20180;-47
2022/06/23 09:39:56;;;;;;;5.43;3.90;;;25.80;55.30;26.60;100358.00;;;;5099966;28;20151;-45
2022/06/23 09:42:32;;;;;;;6.10;4.10;;;25.80;55.70;26.60;100359.00;;;;5086658;28;20240;-46
2022/06/23 09:45:30;;;;;;;4.28;3.88;;;25.80;55.70;26.60;100354.00;;;;5102217;28;20180;-47
2022/06/23 09:48:41;;;;;;;4.70;4.20;;;25.80;55.40;26.70;100345.00;;;;5079403;28;20273;-46
2022/06/23 09:51:29;;;;;;;4.85;4.00;;;25.80;55.70;26.70;100354.00;;;;5099786;28;20275;-46
2022/06/23 09:54:17;;;;;;;4.75;4.30;;;25.90;55.50;26.70;100348.00;;;;5086096;28;20569;-48
2022/06/23 09:57:36;;;;;;;4.80;3.75;;;26.00;55.40;26.80;100344.00;;;;5102326;28;20478;-46
2022/06/23 10:00:11;;;;;;;5.57;4.05;;;26.00;55.70;26.80;100338.00;;;;5074548;28;20176;-46
2022/06/23 10:02:48;;;;;;;4.60;4.18;;;26.00;55.40;26.80;100340.00;;;;5101482;28;20153;-46
2022/06/23 10:05:49;;;;;;;6.72;4.45;;;26.00;55.60;26.80;100325.00;;;;5101832;28;20850;-47
2022/06/23 10:08:40;;;;;;;4.43;4.03;;;26.10;55.60;26.80;100335.00;;;;5065342;28;20204;-46
2022/06/23 10:11:49;;;;;;;5.88;4.18;;;26.10;55.50;26.90;100335.00;;;;5086189;28;20424;-47
2022/06/23 10:14:39;;;;;;;7.78;4.63;;;26.00;55.40;26.90;100334.00;;;;5086300;28;20217;-47
2022/06/23 10:17:22;;;;;;;5.57;4.15;;;26.00;55.40;26.90;100335.00;;;;5099446;28;20161;-47
2022/06/23 10:20:13;;;;;;;5.90;4.15;;;26.10;55.40;26.90;100325.00;;;;5086170;28;20191;-47
2022/06/23 10:23:16;;;;;;;4.75;4.28;;;26.10;55.20;26.90;100324.00;;;;5098990;28;20204;-46
2022/06/23 10:25:46;;;;;;;6.57;4.07;;;26.10;55.00;27.00;100320.00;;;;5086269;28;20168;-47
2022/06/23 10:28:17;;;;;;;8.00;4.40;;;26.20;55.00;27.00;100326.00;;;;5086099;28;20183;-46
2022/06/23 10:31:12;;;;;;;4.72;4.18;;;26.30;55.10;27.10;100326.00;;;;5085952;28;20172;-46
2022/06/23 10:34:02;;;;;;;5.03;4.03;;;26.50;54.80;27.10;100334.00;;;;5100886;28;20664;-48
2022/06/23 10:37:02;;;;;;;4.40;4.03;;;26.50;54.40;27.20;100330.00;;;;5098607;28;20679;-47
2022/06/23 10:39:44;;;;;;;5.93;4.25;;;26.50;53.90;27.20;100321.00;;;;5085613;28;20189;-46
2022/06/23 10:42:33;;;;;;;5.18;4.00;;;26.50;53.60;27.30;100320.00;;;;5086084;28;20149;-47
2022/06/23 10:45:16;;;;;;;4.47;4.00;;;26.60;53.10;27.30;100314.00;;;;5100445;28;20600;-47
2022/06/23 10:48:02;;;;;;;4.50;4.10;;;26.50;53.70;27.30;100319.00;;;;5100107;28;20161;-46
2022/06/23 10:50:40;;;;;;;5.47;4.32;;;26.70;51.90;27.40;100309.00;;;;5101314;28;20630;-46
2022/06/23 10:53:49;;;;;;;5.03;4.15;;;26.80;51.90;27.50;100301.00;;;;5101590;28;20161;-46
2022/06/23 10:56:56;;;;;;;4.40;4.00;;;26.80;52.10;27.40;100312.00;;;;5098245;28;20162;-46
2022/06/23 10:59:59;;;;;;;4.70;4.13;;;26.80;52.60;27.50;100302.00;;;;5098865;28;20169;-47
2022/06/23 11:02:52;;;;;;;4.43;3.97;;;26.80;52.60;27.50;100289.00;;;;5086114;28;20162;-46
2022/06/23 11:05:48;;;;;;;5.05;3.95;;;26.70;53.00;27.50;100299.00;;;;5085676;28;20190;-46
2022/06/23 11:08:39;;;;;;;4.40;4.00;;;26.70;53.20;27.60;100301.00;;;;5085820;28;20223;-46
2022/06/23 11:11:39;;;;;;;5.50;4.22;;;26.80;53.00;27.60;100288.00;;;;5085829;28;20358;-47
2022/06/23 11:14:07;;;;;;;4.22;3.83;;;26.80;52.30;27.60;100290.00;;;;5101357;28;20201;-47
2022/06/23 11:17:09;;;;;;;4.80;4.00;;;26.80;52.70;27.60;100288.00;;;;5085773;28;20638;-47
2022/06/23 11:20:11;;;;;;;5.75;3.97;;;26.80;53.00;27.60;100233.00;;;;5098192;28;20160;-47
2022/06/23 11:22:57;;;;;;;6.18;4.00;;;27.10;51.20;27.70;100285.00;;;;5101684;28;20192;-47
2022/06/23 11:25:42;;;;;;;5.57;4.05;;;27.20;49.00;27.90;100292.00;;;;5099092;28;20221;-47
2022/06/23 11:28:46;;;;;;;5.55;4.22;;;27.50;47.00;28.00;100281.00;;;;5102706;28;20295;-45
2022/06/23 11:32:00;;;;;;;5.13;3.90;;;27.60;46.60;28.00;100277.00;;;;5098730;28;20679;-47
2022/06/23 11:35:29;;;;;;;5.65;3.90;;;27.50;46.90;28.10;100275.00;;;;5085402;28;20243;-46
2022/06/23 11:38:42;;;;;;;5.65;3.53;;;27.60;46.40;28.20;100267.00;;;;5065403;28;20212;-46
2022/06/23 11:41:49;;;;;;;4.45;3.92;;;27.70;45.70;28.20;100246.00;;;;5076717;28;20172;-48
2022/06/23 11:44:17;;;;;;;4.20;3.53;;;27.70;46.30;28.30;100271.00;;;;4991111;27;20192;-47
2022/06/23 11:47:11;;;;;;;4.28;3.88;;;27.80;46.20;28.30;100263.00;;;;5088571;28;20164;-45
2022/06/23 11:50:09;;;;;;;5.40;3.88;;;27.60;47.00;28.30;100269.00;;;;5089274;28;20189;-48
2022/06/23 11:52:50;;;;;;;4.40;4.00;;;27.70;47.40;28.40;100256.00;;;;5088534;28;20185;-46
2022/06/23 11:55:44;;;;;;;4.40;4.00;;;27.70;48.10;28.40;100257.00;;;;5103553;28;20201;-48
2022/06/23 11:58:37;;;;;;;5.43;4.35;;;27.90;48.20;28.50;100253.00;;;;5090304;28;20165;-47
2022/06/23 12:01:11;;;;;;;4.70;4.05;;;27.90;47.90;28.50;100262.00;;;;5088467;28;20173;-46
2022/06/23 12:03:52;;;;;;;4.25;3.70;;;27.90;48.30;28.60;100238.00;;;;5087122;28;20289;-47
2022/06/23 12:06:30;;;;;;;4.18;3.88;;;27.80;48.20;28.60;100243.00;;;;5087219;28;20240;-46
2022/06/23 12:09:14;;;;;;;4.00;3.70;;;27.70;49.20;28.60;100249.00;;;;5088718;28;20162;-45